sensor_id;sensor_type;location;lat;lon;timestamp;temperature;humidity
13697;DHT22;6920;50.080;8.226;2023-08-06T00:01:06;17.20;99.90
13697;DHT22;6920;50.080;8.226;2023-08-06T00:03:33;17.10;99.90
13697;DHT22;6920;50.080;8.226;2023-08-06T00:06:00;17.20;99.90
13697;DHT22;6920;50.080;8.226;2023-08-06T00:08:27;17.20;99.90
13697;DHT22;6920;50.080;8.226;2023-08-06T00:14:18;17.20;99.90
13697;DHT22;6920;50.080;8.226;2023-08-06T00:19:12;17.20;99.90
13697;DHT22;6920;50.080;8.226;2023-08-06T00:21:39;17.10;99.90
13697;DHT22;6920;50.080;8.226;2023-08-06T00:24:06;17.10;99.90
13697;DHT22;6920;50.080;8.226;2023-08-06T00:26:34;17.10;99.90
13697;DHT22;6920;50.080;8.226;2023-08-06T00:29:01;17.10;99.90
13697;DHT22;6920;50.080;8.226;2023-08-06T00:31:29;17.00;99.90
13697;DHT22;6920;50.080;8.226;2023-08-06T00:33:56;17.10;99.90
13697;DHT22;6920;50.080;8.226;2023-08-06T00:36:23;17.10;99.90
13697;DHT22;6920;50.080;8.226;2023-08-06T00:41:17;17.10;99.90
13697;DHT22;6920;50.080;8.226;2023-08-06T00:43:44;17.10;99.90
13697;DHT22;6920;50.080;8.226;2023-08-06T00:48:40;17.20;99.90
13697;DHT22;6920;50.080;8.226;2023-08-06T00:51:09;17.20;99.90
13697;DHT22;6920;50.080;8.226;2023-08-06T00:53:37;17.20;99.90
13697;DHT22;6920;50.080;8.226;2023-08-06T00:56:04;17.30;99.90
13697;DHT22;6920;50.080;8.226;2023-08-06T00:58:32;17.20;99.90
13697;DHT22;6920;50.080;8.226;2023-08-06T01:00:59;17.20;99.90
13697;DHT22;6920;50.080;8.226;2023-08-06T01:03:26;17.20;99.90
13697;DHT22;6920;50.080;8.226;2023-08-06T01:05:55;17.20;99.90
13697;DHT22;6920;50.080;8.226;2023-08-06T01:08:30;17.20;99.90
13697;DHT22;6920;50.080;8.226;2023-08-06T01:11:08;17.30;99.90
13697;DHT22;6920;50.080;8.226;2023-08-06T01:13:42;17.20;99.90
13697;DHT22;6920;50.080;8.226;2023-08-06T01:16:11;17.20;99.90
13697;DHT22;6920;50.080;8.226;2023-08-06T01:18:38;17.20;99.90
13697;DHT22;6920;50.080;8.226;2023-08-06T01:21:08;17.20;99.90
13697;DHT22;6920;50.080;8.226;2023-08-06T01:23:35;17.20;99.90
13697;DHT22;6920;50.080;8.226;2023-08-06T01:26:09;17.10;99.90
13697;DHT22;6920;50.080;8.226;2023-08-06T01:28:42;17.10;99.90
13697;DHT22;6920;50.080;8.226;2023-08-06T01:31:17;17.10;99.90
13697;DHT22;6920;50.080;8.226;2023-08-06T01:33:45;17.00;99.90
13697;DHT22;6920;50.080;8.226;2023-08-06T01:36:15;16.80;99.90
13697;DHT22;6920;50.080;8.226;2023-08-06T01:38:44;16.70;99.90
13697;DHT22;6920;50.080;8.226;2023-08-06T01:43:38;16.70;99.90
13697;DHT22;6920;50.080;8.226;2023-08-06T01:46:05;16.60;99.90
13697;DHT22;6920;50.080;8.226;2023-08-06T01:50:59;16.70;99.90
13697;DHT22;6920;50.080;8.226;2023-08-06T01:53:28;16.70;99.90
13697;DHT22;6920;50.080;8.226;2023-08-06T01:55:55;16.60;99.90
13697;DHT22;6920;50.080;8.226;2023-08-06T01:58:22;16.70;99.90
13697;DHT22;6920;50.080;8.226;2023-08-06T02:00:49;16.70;99.90
13697;DHT22;6920;50.080;8.226;2023-08-06T02:03:16;16.70;99.90
13697;DHT22;6920;50.080;8.226;2023-08-06T02:08:11;16.70;99.90
13697;DHT22;6920;50.080;8.226;2023-08-06T02:10:39;16.70;99.90
13697;DHT22;6920;50.080;8.226;2023-08-06T02:15:34;16.60;99.90
13697;DHT22;6920;50.080;8.226;2023-08-06T02:18:01;16.60;99.90
13697;DHT22;6920;50.080;8.226;2023-08-06T02:20:28;16.60;99.90
13697;DHT22;6920;50.080;8.226;2023-08-06T02:22:55;16.60;99.90
13697;DHT22;6920;50.080;8.226;2023-08-06T02:25:22;16.60;99.90
13697;DHT22;6920;50.080;8.226;2023-08-06T02:27:52;16.60;99.90
13697;DHT22;6920;50.080;8.226;2023-08-06T02:30:19;16.60;99.90
13697;DHT22;6920;50.080;8.226;2023-08-06T02:32:46;16.70;99.90
13697;DHT22;6920;50.080;8.226;2023-08-06T02:35:13;16.70;99.90
13697;DHT22;6920;50.080;8.226;2023-08-06T02:37:40;16.70;99.90
13697;DHT22;6920;50.080;8.226;2023-08-06T02:40:08;16.70;99.90
13697;DHT22;6920;50.080;8.226;2023-08-06T02:42:35;16.70;99.90
13697;DHT22;6920;50.080;8.226;2023-08-06T02:45:06;16.70;99.90
13697;DHT22;6920;50.080;8.226;2023-08-06T02:47:33;16.60;99.90
13697;DHT22;6920;50.080;8.226;2023-08-06T02:50:00;16.60;99.90
13697;DHT22;6920;50.080;8.226;2023-08-06T02:54:55;16.50;99.90
13697;DHT22;6920;50.080;8.226;2023-08-06T02:57:25;16.50;99.90
13697;DHT22;6920;50.080;8.226;2023-08-06T02:59:52;16.50;99.90
13697;DHT22;6920;50.080;8.226;2023-08-06T03:02:21;16.50;99.90
13697;DHT22;6920;50.080;8.226;2023-08-06T03:04:48;16.50;99.90
13697;DHT22;6920;50.080;8.226;2023-08-06T03:07:15;16.50;99.90
13697;DHT22;6920;50.080;8.226;2023-08-06T03:09:42;16.60;99.90
13697;DHT22;6920;50.080;8.226;2023-08-06T03:12:10;16.60;99.90
13697;DHT22;6920;50.080;8.226;2023-08-06T03:14:37;16.60;99.90
13697;DHT22;6920;50.080;8.226;2023-08-06T03:17:05;16.60;99.90
13697;DHT22;6920;50.080;8.226;2023-08-06T03:19:33;16.50;99.90
13697;DHT22;6920;50.080;8.226;2023-08-06T03:22:00;16.60;99.90
13697;DHT22;6920;50.080;8.226;2023-08-06T03:24:27;16.50;99.90
13697;DHT22;6920;50.080;8.226;2023-08-06T03:26:54;16.50;99.90
13697;DHT22;6920;50.080;8.226;2023-08-06T03:29:22;16.50;99.90
13697;DHT22;6920;50.080;8.226;2023-08-06T03:31:49;16.50;99.90
13697;DHT22;6920;50.080;8.226;2023-08-06T03:34:16;16.40;99.90
13697;DHT22;6920;50.080;8.226;2023-08-06T03:36:45;16.40;99.90
13697;DHT22;6920;50.080;8.226;2023-08-06T03:44:07;16.40;99.90
13697;DHT22;6920;50.080;8.226;2023-08-06T03:51:28;16.30;99.90
13697;DHT22;6920;50.080;8.226;2023-08-06T03:53:57;16.30;99.90
13697;DHT22;6920;50.080;8.226;2023-08-06T03:56:24;16.30;99.90
13697;DHT22;6920;50.080;8.226;2023-08-06T03:58:51;16.20;99.90
13697;DHT22;6920;50.080;8.226;2023-08-06T04:06:13;16.00;99.90
13697;DHT22;6920;50.080;8.226;2023-08-06T04:08:40;15.90;99.90
13697;DHT22;6920;50.080;8.226;2023-08-06T04:11:09;15.80;99.90
13697;DHT22;6920;50.080;8.226;2023-08-06T04:16:03;15.50;99.90
13697;DHT22;6920;50.080;8.226;2023-08-06T04:18:31;15.40;99.90
13697;DHT22;6920;50.080;8.226;2023-08-06T04:20:58;15.30;99.90
13697;DHT22;6920;50.080;8.226;2023-08-06T04:23:25;15.20;99.90
13697;DHT22;6920;50.080;8.226;2023-08-06T04:25:52;15.20;99.90
13697;DHT22;6920;50.080;8.226;2023-08-06T04:28:20;15.10;99.90
13697;DHT22;6920;50.080;8.226;2023-08-06T04:30:48;15.10;99.90
13697;DHT22;6920;50.080;8.226;2023-08-06T04:33:15;15.10;99.90
13697;DHT22;6920;50.080;8.226;2023-08-06T04:40:37;15.20;99.90
13697;DHT22;6920;50.080;8.226;2023-08-06T04:43:04;15.20;99.90
13697;DHT22;6920;50.080;8.226;2023-08-06T04:45:32;15.10;99.90
13697;DHT22;6920;50.080;8.226;2023-08-06T04:47:59;15.00;99.90
13697;DHT22;6920;50.080;8.226;2023-08-06T04:50:26;15.00;99.90
13697;DHT22;6920;50.080;8.226;2023-08-06T04:52:53;15.00;99.90
13697;DHT22;6920;50.080;8.226;2023-08-06T04:55:20;15.10;99.90
13697;DHT22;6920;50.080;8.226;2023-08-06T04:57:47;15.00;99.90
13697;DHT22;6920;50.080;8.226;2023-08-06T05:02:43;15.00;99.90
13697;DHT22;6920;50.080;8.226;2023-08-06T05:05:10;15.00;99.90
13697;DHT22;6920;50.080;8.226;2023-08-06T05:07:37;15.00;99.90
13697;DHT22;6920;50.080;8.226;2023-08-06T05:10:05;15.00;99.90
13697;DHT22;6920;50.080;8.226;2023-08-06T05:14:59;15.00;99.90
13697;DHT22;6920;50.080;8.226;2023-08-06T05:17:27;15.00;99.90
13697;DHT22;6920;50.080;8.226;2023-08-06T05:19:55;15.10;99.90
13697;DHT22;6920;50.080;8.226;2023-08-06T05:24:50;15.10;99.90
13697;DHT22;6920;50.080;8.226;2023-08-06T05:27:17;15.00;99.90
13697;DHT22;6920;50.080;8.226;2023-08-06T05:29:45;15.00;99.90
13697;DHT22;6920;50.080;8.226;2023-08-06T05:32:12;15.00;99.90
13697;DHT22;6920;50.080;8.226;2023-08-06T05:34:40;15.00;99.90
13697;DHT22;6920;50.080;8.226;2023-08-06T05:37:08;14.90;99.90
13697;DHT22;6920;50.080;8.226;2023-08-06T05:42:04;15.00;99.90
13697;DHT22;6920;50.080;8.226;2023-08-06T05:44:31;15.00;99.90
13697;DHT22;6920;50.080;8.226;2023-08-06T05:46:58;15.00;99.90
13697;DHT22;6920;50.080;8.226;2023-08-06T05:49:25;15.00;99.90
13697;DHT22;6920;50.080;8.226;2023-08-06T05:51:52;15.00;99.90
13697;DHT22;6920;50.080;8.226;2023-08-06T05:54:21;15.00;99.90
13697;DHT22;6920;50.080;8.226;2023-08-06T05:56:48;15.00;99.90
13697;DHT22;6920;50.080;8.226;2023-08-06T05:59:15;14.90;99.90
13697;DHT22;6920;50.080;8.226;2023-08-06T06:01:42;14.90;99.90
13697;DHT22;6920;50.080;8.226;2023-08-06T06:04:09;14.90;99.90
13697;DHT22;6920;50.080;8.226;2023-08-06T06:06:36;14.90;99.90
13697;DHT22;6920;50.080;8.226;2023-08-06T06:09:04;14.80;99.90
13697;DHT22;6920;50.080;8.226;2023-08-06T06:11:49;14.80;99.90
13697;DHT22;6920;50.080;8.226;2023-08-06T06:14:16;14.80;99.90
13697;DHT22;6920;50.080;8.226;2023-08-06T06:16:44;14.80;99.90
13697;DHT22;6920;50.080;8.226;2023-08-06T06:19:12;14.80;99.90
13697;DHT22;6920;50.080;8.226;2023-08-06T06:21:40;14.80;99.90
13697;DHT22;6920;50.080;8.226;2023-08-06T06:24:07;14.80;99.90
13697;DHT22;6920;50.080;8.226;2023-08-06T06:26:34;14.80;99.90
13697;DHT22;6920;50.080;8.226;2023-08-06T06:29:03;14.80;99.90
13697;DHT22;6920;50.080;8.226;2023-08-06T06:31:30;14.90;99.90
13697;DHT22;6920;50.080;8.226;2023-08-06T06:33:57;14.80;99.90
13697;DHT22;6920;50.080;8.226;2023-08-06T06:36:25;14.90;99.90
13697;DHT22;6920;50.080;8.226;2023-08-06T06:38:52;14.90;99.90
13697;DHT22;6920;50.080;8.226;2023-08-06T06:41:19;15.00;99.90
13697;DHT22;6920;50.080;8.226;2023-08-06T06:43:46;15.00;99.90
13697;DHT22;6920;50.080;8.226;2023-08-06T06:46:15;14.90;99.90
13697;DHT22;6920;50.080;8.226;2023-08-06T06:48:42;14.80;99.90
13697;DHT22;6920;50.080;8.226;2023-08-06T06:51:09;14.90;99.90
13697;DHT22;6920;50.080;8.226;2023-08-06T06:56:04;14.80;99.90
13697;DHT22;6920;50.080;8.226;2023-08-06T06:58:32;14.90;99.90
13697;DHT22;6920;50.080;8.226;2023-08-06T07:00:59;14.90;99.90
13697;DHT22;6920;50.080;8.226;2023-08-06T07:03:28;14.80;99.90
13697;DHT22;6920;50.080;8.226;2023-08-06T07:05:57;14.90;99.90
13697;DHT22;6920;50.080;8.226;2023-08-06T07:08:25;14.90;99.90
13697;DHT22;6920;50.080;8.226;2023-08-06T07:11:00;14.90;99.90
13697;DHT22;6920;50.080;8.226;2023-08-06T07:13:29;14.90;99.90
13697;DHT22;6920;50.080;8.226;2023-08-06T07:18:24;15.00;99.90
13697;DHT22;6920;50.080;8.226;2023-08-06T07:20:53;15.00;99.90
13697;DHT22;6920;50.080;8.226;2023-08-06T07:23:22;15.10;99.90
13697;DHT22;6920;50.080;8.226;2023-08-06T07:28:17;15.20;99.90
13697;DHT22;6920;50.080;8.226;2023-08-06T07:30:45;15.20;99.90
13697;DHT22;6920;50.080;8.226;2023-08-06T07:33:12;15.30;99.90
13697;DHT22;6920;50.080;8.226;2023-08-06T07:35:39;15.20;99.90
13697;DHT22;6920;50.080;8.226;2023-08-06T07:38:08;15.30;99.90
13697;DHT22;6920;50.080;8.226;2023-08-06T07:40:36;15.40;99.90
13697;DHT22;6920;50.080;8.226;2023-08-06T07:43:03;15.60;99.90
13697;DHT22;6920;50.080;8.226;2023-08-06T07:45:33;15.70;99.90
13697;DHT22;6920;50.080;8.226;2023-08-06T07:48:01;15.70;99.90
13697;DHT22;6920;50.080;8.226;2023-08-06T07:50:29;15.90;99.90
13697;DHT22;6920;50.080;8.226;2023-08-06T07:52:56;15.90;99.90
13697;DHT22;6920;50.080;8.226;2023-08-06T07:55:25;15.90;99.90
13697;DHT22;6920;50.080;8.226;2023-08-06T07:57:53;15.80;99.90
13697;DHT22;6920;50.080;8.226;2023-08-06T08:02:48;15.80;99.90
13697;DHT22;6920;50.080;8.226;2023-08-06T08:05:15;15.80;99.90
13697;DHT22;6920;50.080;8.226;2023-08-06T08:07:43;15.70;99.90
13697;DHT22;6920;50.080;8.226;2023-08-06T08:10:10;15.60;99.90
13697;DHT22;6920;50.080;8.226;2023-08-06T08:15:58;15.60;99.90
13697;DHT22;6920;50.080;8.226;2023-08-06T08:18:25;15.70;99.90
13697;DHT22;6920;50.080;8.226;2023-08-06T08:20:53;15.70;99.90
13697;DHT22;6920;50.080;8.226;2023-08-06T08:23:20;16.10;99.90
13697;DHT22;6920;50.080;8.226;2023-08-06T08:25:47;16.10;99.90
13697;DHT22;6920;50.080;8.226;2023-08-06T08:28:14;16.20;99.90
13697;DHT22;6920;50.080;8.226;2023-08-06T08:30:41;16.30;99.90
13697;DHT22;6920;50.080;8.226;2023-08-06T08:33:10;16.50;99.90
13697;DHT22;6920;50.080;8.226;2023-08-06T08:35:37;16.60;99.90
13697;DHT22;6920;50.080;8.226;2023-08-06T08:38:05;16.70;99.90
13697;DHT22;6920;50.080;8.226;2023-08-06T08:40:33;17.20;99.90
13697;DHT22;6920;50.080;8.226;2023-08-06T08:43:05;17.70;99.90
13697;DHT22;6920;50.080;8.226;2023-08-06T08:45:35;17.70;99.90
13697;DHT22;6920;50.080;8.226;2023-08-06T08:48:06;17.60;99.90
13697;DHT22;6920;50.080;8.226;2023-08-06T08:50:35;17.60;99.90
13697;DHT22;6920;50.080;8.226;2023-08-06T08:53:03;17.90;99.90
13697;DHT22;6920;50.080;8.226;2023-08-06T08:55:30;18.30;99.90
13697;DHT22;6920;50.080;8.226;2023-08-06T08:57:58;17.90;99.90
13697;DHT22;6920;50.080;8.226;2023-08-06T09:00:26;17.60;99.90
13697;DHT22;6920;50.080;8.226;2023-08-06T09:02:54;17.50;99.90
13697;DHT22;6920;50.080;8.226;2023-08-06T09:05:23;17.60;99.90
13697;DHT22;6920;50.080;8.226;2023-08-06T09:07:53;17.50;99.90
13697;DHT22;6920;50.080;8.226;2023-08-06T09:10:21;17.70;99.90
13697;DHT22;6920;50.080;8.226;2023-08-06T09:12:51;17.90;99.90
13697;DHT22;6920;50.080;8.226;2023-08-06T09:15:20;18.30;99.90
13697;DHT22;6920;50.080;8.226;2023-08-06T09:17:52;18.40;99.90
13697;DHT22;6920;50.080;8.226;2023-08-06T09:20:20;18.30;99.90
13697;DHT22;6920;50.080;8.226;2023-08-06T09:22:47;18.40;99.90
13697;DHT22;6920;50.080;8.226;2023-08-06T09:25:21;18.30;99.90
13697;DHT22;6920;50.080;8.226;2023-08-06T09:27:50;18.20;99.90
13697;DHT22;6920;50.080;8.226;2023-08-06T09:30:29;18.10;99.90
13697;DHT22;6920;50.080;8.226;2023-08-06T09:32:57;18.00;99.90
13697;DHT22;6920;50.080;8.226;2023-08-06T09:35:27;17.80;99.90
13697;DHT22;6920;50.080;8.226;2023-08-06T09:40:30;17.20;99.90
13697;DHT22;6920;50.080;8.226;2023-08-06T09:42:58;17.10;99.90
13697;DHT22;6920;50.080;8.226;2023-08-06T09:45:30;17.00;99.90
13697;DHT22;6920;50.080;8.226;2023-08-06T09:47:58;16.90;99.90
13697;DHT22;6920;50.080;8.226;2023-08-06T09:50:29;16.60;99.90
13697;DHT22;6920;50.080;8.226;2023-08-06T09:52:57;16.20;99.90
13697;DHT22;6920;50.080;8.226;2023-08-06T09:55:26;16.30;99.90
13697;DHT22;6920;50.080;8.226;2023-08-06T09:57:54;16.30;99.90
13697;DHT22;6920;50.080;8.226;2023-08-06T10:00:21;16.30;99.90
13697;DHT22;6920;50.080;8.226;2023-08-06T10:02:49;16.50;99.90
13697;DHT22;6920;50.080;8.226;2023-08-06T10:05:21;16.50;99.90
13697;DHT22;6920;50.080;8.226;2023-08-06T10:07:49;16.80;99.90
13697;DHT22;6920;50.080;8.226;2023-08-06T10:10:17;17.30;99.90
13697;DHT22;6920;50.080;8.226;2023-08-06T10:12:50;17.60;99.90
13697;DHT22;6920;50.080;8.226;2023-08-06T10:15:22;17.60;99.90
13697;DHT22;6920;50.080;8.226;2023-08-06T10:17:54;17.50;99.90
13697;DHT22;6920;50.080;8.226;2023-08-06T10:20:23;17.30;99.90
13697;DHT22;6920;50.080;8.226;2023-08-06T10:23:01;17.20;99.90
13697;DHT22;6920;50.080;8.226;2023-08-06T10:25:31;17.40;99.90
13697;DHT22;6920;50.080;8.226;2023-08-06T10:28:01;17.50;99.90
13697;DHT22;6920;50.080;8.226;2023-08-06T10:30:33;17.60;99.90
13697;DHT22;6920;50.080;8.226;2023-08-06T10:33:03;17.80;99.90
13697;DHT22;6920;50.080;8.226;2023-08-06T10:35:34;18.20;99.90
13697;DHT22;6920;50.080;8.226;2023-08-06T10:38:07;18.00;99.90
13697;DHT22;6920;50.080;8.226;2023-08-06T10:43:04;17.10;99.90
13697;DHT22;6920;50.080;8.226;2023-08-06T10:45:35;16.70;99.90
13697;DHT22;6920;50.080;8.226;2023-08-06T10:48:02;16.60;99.90
13697;DHT22;6920;50.080;8.226;2023-08-06T10:50:30;16.60;99.90
13697;DHT22;6920;50.080;8.226;2023-08-06T10:52:57;16.70;99.90
13697;DHT22;6920;50.080;8.226;2023-08-06T10:55:29;16.90;99.90
13697;DHT22;6920;50.080;8.226;2023-08-06T10:57:56;17.00;99.90
13697;DHT22;6920;50.080;8.226;2023-08-06T11:00:26;17.20;99.90
13697;DHT22;6920;50.080;8.226;2023-08-06T11:02:53;17.30;99.90
13697;DHT22;6920;50.080;8.226;2023-08-06T11:05:21;17.30;99.90
13697;DHT22;6920;50.080;8.226;2023-08-06T11:07:48;17.20;99.90
13697;DHT22;6920;50.080;8.226;2023-08-06T11:10:17;16.80;99.90
13697;DHT22;6920;50.080;8.226;2023-08-06T11:12:44;16.60;99.90
13697;DHT22;6920;50.080;8.226;2023-08-06T11:15:11;16.50;99.90
13697;DHT22;6920;50.080;8.226;2023-08-06T11:17:40;16.30;99.90
13697;DHT22;6920;50.080;8.226;2023-08-06T11:20:09;16.40;99.90
13697;DHT22;6920;50.080;8.226;2023-08-06T11:22:37;16.20;99.90
13697;DHT22;6920;50.080;8.226;2023-08-06T11:25:06;16.10;99.90
13697;DHT22;6920;50.080;8.226;2023-08-06T11:30:01;15.90;99.90
13697;DHT22;6920;50.080;8.226;2023-08-06T11:32:28;15.80;99.90
13697;DHT22;6920;50.080;8.226;2023-08-06T11:34:56;15.70;99.90
13697;DHT22;6920;50.080;8.226;2023-08-06T11:37:23;15.80;99.90
13697;DHT22;6920;50.080;8.226;2023-08-06T11:39:52;15.80;99.90
13697;DHT22;6920;50.080;8.226;2023-08-06T11:44:47;15.60;99.90
13697;DHT22;6920;50.080;8.226;2023-08-06T11:47:15;15.60;99.90
13697;DHT22;6920;50.080;8.226;2023-08-06T11:49:44;15.60;99.90
13697;DHT22;6920;50.080;8.226;2023-08-06T11:52:18;15.70;99.90
13697;DHT22;6920;50.080;8.226;2023-08-06T11:54:47;15.60;99.90
13697;DHT22;6920;50.080;8.226;2023-08-06T11:57:15;15.50;99.90
13697;DHT22;6920;50.080;8.226;2023-08-06T11:59:43;15.40;99.90
13697;DHT22;6920;50.080;8.226;2023-08-06T12:02:10;15.40;99.90
13697;DHT22;6920;50.080;8.226;2023-08-06T12:05:00;15.40;99.90
13697;DHT22;6920;50.080;8.226;2023-08-06T12:07:30;15.30;99.90
13697;DHT22;6920;50.080;8.226;2023-08-06T12:09:58;15.50;99.90
13697;DHT22;6920;50.080;8.226;2023-08-06T12:14:54;15.50;99.90
13697;DHT22;6920;50.080;8.226;2023-08-06T12:17:22;15.50;99.90
13697;DHT22;6920;50.080;8.226;2023-08-06T12:19:49;15.50;99.90
13697;DHT22;6920;50.080;8.226;2023-08-06T12:22:17;15.50;99.90
13697;DHT22;6920;50.080;8.226;2023-08-06T12:24:47;15.50;99.90
13697;DHT22;6920;50.080;8.226;2023-08-06T12:27:14;15.60;99.90
13697;DHT22;6920;50.080;8.226;2023-08-06T12:29:42;15.60;99.90
13697;DHT22;6920;50.080;8.226;2023-08-06T12:32:10;15.60;99.90
13697;DHT22;6920;50.080;8.226;2023-08-06T12:34:38;15.60;99.90
13697;DHT22;6920;50.080;8.226;2023-08-06T12:37:07;15.60;99.90
13697;DHT22;6920;50.080;8.226;2023-08-06T12:39:34;15.60;99.90
13697;DHT22;6920;50.080;8.226;2023-08-06T12:42:04;15.60;99.90
13697;DHT22;6920;50.080;8.226;2023-08-06T12:44:32;15.50;99.90
13697;DHT22;6920;50.080;8.226;2023-08-06T12:46:59;15.40;99.90
13697;DHT22;6920;50.080;8.226;2023-08-06T12:49:27;15.60;99.90
13697;DHT22;6920;50.080;8.226;2023-08-06T12:51:55;15.50;99.90
13697;DHT22;6920;50.080;8.226;2023-08-06T12:54:24;15.50;99.90
13697;DHT22;6920;50.080;8.226;2023-08-06T12:56:56;15.50;99.90
13697;DHT22;6920;50.080;8.226;2023-08-06T12:59:27;15.50;99.90
13697;DHT22;6920;50.080;8.226;2023-08-06T13:01:54;15.60;99.90
13697;DHT22;6920;50.080;8.226;2023-08-06T13:04:22;15.70;99.90
13697;DHT22;6920;50.080;8.226;2023-08-06T13:06:49;15.70;99.90
13697;DHT22;6920;50.080;8.226;2023-08-06T13:09:17;15.80;99.90
13697;DHT22;6920;50.080;8.226;2023-08-06T13:11:44;15.80;99.90
13697;DHT22;6920;50.080;8.226;2023-08-06T13:14:13;15.70;99.90
13697;DHT22;6920;50.080;8.226;2023-08-06T13:16:43;15.80;99.90
13697;DHT22;6920;50.080;8.226;2023-08-06T13:19:11;15.60;99.90
13697;DHT22;6920;50.080;8.226;2023-08-06T13:22:01;15.70;99.90
13697;DHT22;6920;50.080;8.226;2023-08-06T13:24:29;15.70;99.90
13697;DHT22;6920;50.080;8.226;2023-08-06T13:26:57;15.80;99.90
13697;DHT22;6920;50.080;8.226;2023-08-06T13:29:25;15.80;99.90
13697;DHT22;6920;50.080;8.226;2023-08-06T13:31:54;15.80;99.90
13697;DHT22;6920;50.080;8.226;2023-08-06T13:34:21;15.90;99.90
13697;DHT22;6920;50.080;8.226;2023-08-06T13:36:49;15.90;99.90
13697;DHT22;6920;50.080;8.226;2023-08-06T13:39:17;16.00;99.90
13697;DHT22;6920;50.080;8.226;2023-08-06T13:41:45;16.10;99.90
13697;DHT22;6920;50.080;8.226;2023-08-06T13:44:13;16.20;99.90
13697;DHT22;6920;50.080;8.226;2023-08-06T13:46:42;16.40;99.90
13697;DHT22;6920;50.080;8.226;2023-08-06T13:49:10;16.50;99.90
13697;DHT22;6920;50.080;8.226;2023-08-06T13:51:38;16.60;99.90
13697;DHT22;6920;50.080;8.226;2023-08-06T13:54:06;16.50;99.90
13697;DHT22;6920;50.080;8.226;2023-08-06T13:56:35;16.50;99.90
13697;DHT22;6920;50.080;8.226;2023-08-06T13:59:03;16.60;99.90
13697;DHT22;6920;50.080;8.226;2023-08-06T14:01:31;16.70;99.90
13697;DHT22;6920;50.080;8.226;2023-08-06T14:03:58;16.70;99.90
13697;DHT22;6920;50.080;8.226;2023-08-06T14:06:27;16.80;99.90
13697;DHT22;6920;50.080;8.226;2023-08-06T14:11:26;16.90;99.90
13697;DHT22;6920;50.080;8.226;2023-08-06T14:13:55;16.80;99.90
13697;DHT22;6920;50.080;8.226;2023-08-06T14:16:23;16.80;99.90
13697;DHT22;6920;50.080;8.226;2023-08-06T14:18:50;16.80;99.90
13697;DHT22;6920;50.080;8.226;2023-08-06T14:21:17;16.80;99.90
13697;DHT22;6920;50.080;8.226;2023-08-06T14:23:46;16.80;99.90
13697;DHT22;6920;50.080;8.226;2023-08-06T14:26:13;16.80;99.90
13697;DHT22;6920;50.080;8.226;2023-08-06T14:28:41;16.80;99.90
13697;DHT22;6920;50.080;8.226;2023-08-06T14:31:08;16.80;99.90
13697;DHT22;6920;50.080;8.226;2023-08-06T14:36:57;16.70;99.90
13697;DHT22;6920;50.080;8.226;2023-08-06T14:39:26;16.70;99.90
13697;DHT22;6920;50.080;8.226;2023-08-06T14:41:53;16.70;99.90
13697;DHT22;6920;50.080;8.226;2023-08-06T14:44:20;16.50;99.90
13697;DHT22;6920;50.080;8.226;2023-08-06T14:46:48;16.40;99.90
13697;DHT22;6920;50.080;8.226;2023-08-06T14:51:42;16.40;99.90
13697;DHT22;6920;50.080;8.226;2023-08-06T14:54:10;16.40;99.90
13697;DHT22;6920;50.080;8.226;2023-08-06T14:56:38;16.40;99.90
13697;DHT22;6920;50.080;8.226;2023-08-06T14:59:08;16.50;99.90
13697;DHT22;6920;50.080;8.226;2023-08-06T15:01:35;16.40;99.90
13697;DHT22;6920;50.080;8.226;2023-08-06T15:04:02;16.40;99.90
13697;DHT22;6920;50.080;8.226;2023-08-06T15:06:29;16.40;99.90
13697;DHT22;6920;50.080;8.226;2023-08-06T15:09:13;16.40;99.90
13697;DHT22;6920;50.080;8.226;2023-08-06T15:11:44;16.40;99.90
13697;DHT22;6920;50.080;8.226;2023-08-06T15:14:11;16.40;99.90
13697;DHT22;6920;50.080;8.226;2023-08-06T15:16:38;16.40;99.90
13697;DHT22;6920;50.080;8.226;2023-08-06T15:21:32;16.40;99.90
13697;DHT22;6920;50.080;8.226;2023-08-06T15:23:59;16.50;99.90
13697;DHT22;6920;50.080;8.226;2023-08-06T15:26:30;16.50;99.90
13697;DHT22;6920;50.080;8.226;2023-08-06T15:28:59;16.60;99.90
13697;DHT22;6920;50.080;8.226;2023-08-06T15:31:35;16.50;99.90
13697;DHT22;6920;50.080;8.226;2023-08-06T15:34:03;16.60;99.90
13697;DHT22;6920;50.080;8.226;2023-08-06T15:36:30;16.40;99.90
13697;DHT22;6920;50.080;8.226;2023-08-06T15:38:59;16.40;99.90
13697;DHT22;6920;50.080;8.226;2023-08-06T15:41:27;16.30;99.90
13697;DHT22;6920;50.080;8.226;2023-08-06T15:43:54;16.30;99.90
13697;DHT22;6920;50.080;8.226;2023-08-06T15:46:23;16.20;99.90
13697;DHT22;6920;50.080;8.226;2023-08-06T15:48:51;16.10;99.90
13697;DHT22;6920;50.080;8.226;2023-08-06T15:51:19;16.10;99.90
13697;DHT22;6920;50.080;8.226;2023-08-06T15:53:48;16.10;99.90
13697;DHT22;6920;50.080;8.226;2023-08-06T15:56:15;16.20;99.90
13697;DHT22;6920;50.080;8.226;2023-08-06T15:58:46;16.20;99.90
13697;DHT22;6920;50.080;8.226;2023-08-06T16:01:14;16.10;99.90
13697;DHT22;6920;50.080;8.226;2023-08-06T16:03:44;16.00;99.90
13697;DHT22;6920;50.080;8.226;2023-08-06T16:06:11;15.90;99.90
13697;DHT22;6920;50.080;8.226;2023-08-06T16:08:40;15.90;99.90
13697;DHT22;6920;50.080;8.226;2023-08-06T16:11:07;15.80;99.90
13697;DHT22;6920;50.080;8.226;2023-08-06T16:13:36;15.70;99.90
13697;DHT22;6920;50.080;8.226;2023-08-06T16:16:03;15.70;99.90
13697;DHT22;6920;50.080;8.226;2023-08-06T16:18:32;15.60;99.90
13697;DHT22;6920;50.080;8.226;2023-08-06T16:21:02;15.50;99.90
13697;DHT22;6920;50.080;8.226;2023-08-06T16:23:30;15.50;99.90
13697;DHT22;6920;50.080;8.226;2023-08-06T16:25:57;15.50;99.90
13697;DHT22;6920;50.080;8.226;2023-08-06T16:28:24;15.40;99.90
13697;DHT22;6920;50.080;8.226;2023-08-06T16:30:54;15.40;99.90
13697;DHT22;6920;50.080;8.226;2023-08-06T16:33:21;15.40;99.90
13697;DHT22;6920;50.080;8.226;2023-08-06T16:35:54;15.50;99.90
13697;DHT22;6920;50.080;8.226;2023-08-06T16:38:23;15.40;99.90
13697;DHT22;6920;50.080;8.226;2023-08-06T16:40:54;15.50;99.90
13697;DHT22;6920;50.080;8.226;2023-08-06T16:43:22;15.50;99.90
13697;DHT22;6920;50.080;8.226;2023-08-06T16:45:50;15.40;99.90
13697;DHT22;6920;50.080;8.226;2023-08-06T16:48:19;15.50;99.90
13697;DHT22;6920;50.080;8.226;2023-08-06T16:50:52;15.50;99.90
13697;DHT22;6920;50.080;8.226;2023-08-06T16:53:20;15.20;99.90
13697;DHT22;6920;50.080;8.226;2023-08-06T16:55:50;15.40;99.90
13697;DHT22;6920;50.080;8.226;2023-08-06T16:58:19;15.40;99.90
13697;DHT22;6920;50.080;8.226;2023-08-06T17:00:46;15.40;99.90
13697;DHT22;6920;50.080;8.226;2023-08-06T17:03:15;15.30;99.90
13697;DHT22;6920;50.080;8.226;2023-08-06T17:05:44;15.40;99.90
13697;DHT22;6920;50.080;8.226;2023-08-06T17:08:12;15.30;99.90
13697;DHT22;6920;50.080;8.226;2023-08-06T17:10:39;15.40;99.90
13697;DHT22;6920;50.080;8.226;2023-08-06T17:13:08;15.40;99.90
13697;DHT22;6920;50.080;8.226;2023-08-06T17:15:35;15.40;99.90
13697;DHT22;6920;50.080;8.226;2023-08-06T17:18:02;15.50;99.90
13697;DHT22;6920;50.080;8.226;2023-08-06T17:20:30;15.50;99.90
13697;DHT22;6920;50.080;8.226;2023-08-06T17:22:58;15.50;99.90